Angelina County Airport
KLFK : now visible

Airfield :











YOU CAN JOIN US ON...

 
LOGIN :

Register | Disclaimer

   EN    FR    IT 

 









Legend :    VFR   Marginal VFR   IFR   Intensive IFR   Very Intensive IFR
Visi :
Ceiling :
>= 8 km
>= 3000ft
5 to 8 km
1000 to 3000 ft
1500m to 5 km
500 to 1000 ft
800 to 1500m
200 to 500 ft
< 800m
< 200 ft
Symbols :   Thunderstorms  Fog  Heavy snow  Heavy precipitations  Wind > 20 kt






- Airport Elevation : 296 ft


KLFK - Angelina County

CURRENT METAR :
  • 080653Z AUTO 14007KT 10SM BKN029 BKN036 OVC100 19/17 A3003 RMK AO2 SLP165 T01890172

EXPIRED METARs :
  • 080553Z AUTO 15008KT 10SM SCT033 BKN055 OVC100 19/17 A3004 RMK AO2 SLP168 T01890167 10206 20189 402280139 55003
  • 080453Z AUTO 15007KT 10SM FEW041 SCT048 BKN060 19/17 A3003 RMK AO2 SLP168 T01890167

TAF KLFK
Valid from the 08 at 06:00 until the 09 at 06:00 UTC


080520Z 0806/0906 14011KT P6SM OVC015
FM080900 14010KT 5SM -SHRA OVC007
FM081500 15008KT 2SM BR VCSH OVC005
FM081800 20013KT 5SM BR VCSH OVC010
FM082000 24012KT 6SM -RA OVC008
FM082300 25011KT P6SM VCSH OVC015
FM090300 26004KT P6SM OVC050
KZHU FIR / North America



MET'MAP, your aeronautical weather chart ! - Copyright ORBIFLY December 2007 - Disclaimer

ORBIFLY MET'MAP TEAM :

Programming & Development : Alexandra Zaïnal
Original concept : Baudouin d'Aumeries
Technical & hardware support : Manuel Goepfert
Assistance : Marc-Olivier Méhu




SOURCES & CREDITS :

   NOAA       Earth
Advisory